createdAt,value
2023-03-07T00:01:58.705Z,99024.72
2023-03-07T00:07:00.232Z,99017.72
2023-03-07T00:12:01.615Z,99011.38
2023-03-07T00:17:02.972Z,99008.47
2023-03-07T00:22:04.459Z,99010.25
2023-03-07T00:27:06.265Z,99006.69
2023-03-07T00:32:07.720Z,98999.56
2023-03-07T00:37:09.250Z,98986.13
2023-03-07T00:42:10.578Z,98990.31
2023-03-07T00:47:12.199Z,98977.38
2023-03-07T00:52:13.524Z,98975.25
2023-03-07T00:57:14.856Z,98957.81
2023-03-07T01:02:16.331Z,98965.19
2023-03-07T01:07:17.776Z,98947.09
2023-03-07T01:12:19.115Z,98935.25
2023-03-07T01:17:20.482Z,98931.16
2023-03-07T01:22:21.798Z,98926.53
2023-03-07T01:27:23.763Z,98929.38
2023-03-07T01:32:25.286Z,98927.41
2023-03-07T01:37:26.704Z,98919.09
2023-03-07T01:42:31.449Z,98924.41
2023-03-07T01:47:32.856Z,98916.78
2023-03-07T01:52:41.658Z,98915.78
2023-03-07T01:57:45.793Z,98907.78
2023-03-07T02:02:53.598Z,98908.81
2023-03-07T02:07:56.968Z,98901.97
2023-03-07T02:12:58.363Z,98888.78
2023-03-07T02:17:59.868Z,98878.63
2023-03-07T02:23:01.968Z,98879.78
2023-03-07T02:28:04.447Z,98871.50
2023-03-07T02:33:05.805Z,98867.50
2023-03-07T02:38:07.494Z,98849.69
2023-03-07T02:43:09.620Z,98852.84
2023-03-07T02:48:11.134Z,98848.50
2023-03-07T02:53:12.454Z,98842.84
2023-03-07T02:58:13.812Z,98832.19
2023-03-07T03:03:15.230Z,98829.81
2023-03-07T03:08:16.558Z,98811.38
2023-03-07T03:13:17.900Z,98822.31
2023-03-07T03:18:19.358Z,98812.22
2023-03-07T03:23:21.071Z,98828.50
2023-03-07T03:28:22.763Z,98805.84
2023-03-07T03:33:24.095Z,98809.81
2023-03-07T03:38:26.770Z,98803.50
2023-03-07T03:43:28.122Z,98806.19
2023-03-07T03:48:29.730Z,98808.78
2023-03-07T03:53:33.331Z,98799.16
2023-03-07T03:58:35.679Z,98793.81
2023-03-07T04:03:43.316Z,98784.16
2023-03-07T04:08:46.364Z,98775.00
2023-03-07T04:13:47.776Z,98775.19
2023-03-07T04:18:50.890Z,98763.53
2023-03-07T04:23:55.494Z,98773.03
2023-03-07T04:28:56.906Z,98770.53
2023-03-07T04:33:58.602Z,98770.44
2023-03-07T04:38:59.917Z,98758.50
2023-03-07T04:44:01.380Z,98747.13
2023-03-07T04:49:02.742Z,98740.78
2023-03-07T04:54:04.169Z,98748.44
2023-03-07T04:59:05.503Z,98741.25
2023-03-07T05:04:06.863Z,98736.22
2023-03-07T05:09:08.226Z,98723.72
2023-03-07T05:14:09.571Z,98723.38
2023-03-07T05:19:10.955Z,98713.63
2023-03-07T05:24:12.296Z,98708.53
2023-03-07T05:29:13.748Z,98704.28
2023-03-07T05:34:15.945Z,98705.59
2023-03-07T05:39:17.475Z,98703.28
2023-03-07T05:44:19.620Z,98702.25
2023-03-07T05:49:21.165Z,98696.50
2023-03-07T05:54:22.597Z,98708.53
2023-03-07T05:59:23.926Z,98694.00
2023-03-07T06:04:25.339Z,98686.56
2023-03-07T06:09:28.052Z,98688.03
2023-03-07T06:14:31.194Z,98686.00
2023-03-07T06:19:33.854Z,98695.75
2023-03-07T06:24:35.204Z,98702.47
2023-03-07T06:29:37.005Z,98706.50
2023-03-07T06:34:38.372Z,98691.88
2023-03-07T06:39:39.834Z,98692.81
2023-03-07T06:44:43.760Z,98706.78
2023-03-07T06:49:45.209Z,98702.09
2023-03-07T06:54:46.733Z,98698.16
2023-03-07T06:59:48.082Z,98693.28
2023-03-07T07:04:49.505Z,98692.31
2023-03-07T07:09:51.429Z,98692.06
2023-03-07T07:14:52.818Z,98688.84
2023-03-07T07:19:54.178Z,98682.97
2023-03-07T07:24:55.571Z,98682.13
2023-03-07T07:29:56.929Z,98679.66
2023-03-07T07:34:58.326Z,98678.53
2023-03-07T07:39:59.696Z,98678.63
2023-03-07T07:45:01.351Z,98679.06
2023-03-07T07:50:02.818Z,98679.34
2023-03-07T07:55:04.477Z,98675.47
2023-03-07T08:00:06.776Z,98684.75
2023-03-07T08:05:12.594Z,98692.00
2023-03-07T08:10:16.010Z,98674.81
2023-03-07T08:15:19.378Z,98668.31
2023-03-07T08:20:23.406Z,98658.09
2023-03-07T08:25:25.584Z,98658.22
2023-03-07T08:30:30.186Z,98673.91
2023-03-07T08:35:32.266Z,98654.84
2023-03-07T08:40:33.763Z,98644.91
2023-03-07T08:45:35.130Z,98644.75
2023-03-07T08:50:38.771Z,98634.97
2023-03-07T08:55:40.110Z,98633.91
2023-03-07T09:00:41.574Z,98633.63
2023-03-07T09:05:42.960Z,98636.97
2023-03-07T09:10:44.369Z,98633.75
2023-03-07T09:15:45.924Z,98625.97
2023-03-07T09:20:47.264Z,98634.06
2023-03-07T09:25:48.627Z,98630.16
2023-03-07T09:30:49.992Z,98636.56
2023-03-07T09:35:51.460Z,98625.09
2023-03-07T09:40:53.092Z,98624.69
2023-03-07T09:46:13.105Z,98621.19
2023-03-07T09:51:50.449Z,98606.16
2023-03-07T09:56:55.498Z,98609.44
2023-03-07T10:02:17.172Z,98599.97
2023-03-07T10:07:23.227Z,98595.63
2023-03-07T10:12:55.213Z,98592.34
2023-03-07T10:18:12.116Z,98584.50
2023-03-07T10:23:32.808Z,98587.56
2023-03-07T10:28:37.096Z,98584.22
2023-03-07T10:33:40.620Z,98574.75
2023-03-07T10:39:06.426Z,98576.38
2023-03-07T10:44:17.418Z,98595.34
2023-03-07T10:49:25.087Z,98580.69
2023-03-07T10:54:38.323Z,98573.00
2023-03-07T10:59:45.195Z,98560.84
2023-03-07T11:04:47.121Z,98566.63
2023-03-07T11:09:49.260Z,98556.59
2023-03-07T11:14:52.410Z,98557.50
2023-03-07T11:19:57.976Z,98547.03
2023-03-07T11:25:13.942Z,98542.06
2023-03-07T11:30:21.936Z,98538.84
2023-03-07T11:35:52.676Z,98524.41
2023-03-07T11:41:07.969Z,98528.28
2023-03-07T11:46:24.942Z,98521.13
2023-03-07T11:51:53.468Z,98516.63
2023-03-07T11:57:06.159Z,98514.03
2023-03-07T12:02:46.659Z,98525.59
2023-03-07T12:08:13.047Z,98508.47
2023-03-07T12:13:43.447Z,98508.50
2023-03-07T12:18:55.751Z,98502.00
2023-03-07T12:24:03.201Z,98494.56
2023-03-07T12:29:20.627Z,98494.16
2023-03-07T12:34:46.008Z,98489.75
2023-03-07T12:40:10.934Z,98481.59
2023-03-07T12:45:26.064Z,98483.53
2023-03-07T12:50:41.258Z,98460.22
2023-03-07T12:55:50.449Z,98470.72
2023-03-07T13:00:59.748Z,98469.94
2023-03-07T13:06:01.511Z,98460.72
2023-03-07T13:11:03.364Z,98451.34
2023-03-07T13:16:05.643Z,98447.09
2023-03-07T13:21:08.533Z,98449.78
2023-03-07T13:26:11.827Z,98448.97
2023-03-07T13:31:29.309Z,98438.06
2023-03-07T13:36:38.654Z,98446.03
2023-03-07T13:41:46.601Z,98454.91
2023-03-07T13:46:48.830Z,98454.56
2023-03-07T13:52:35.337Z,98447.91
2023-03-07T13:57:39.022Z,98448.00
2023-03-07T14:02:43.596Z,98444.19
2023-03-07T14:07:51.355Z,98457.75
2023-03-07T14:13:11.174Z,98457.44
2023-03-07T14:18:35.072Z,98454.06
2023-03-07T14:24:09.932Z,98457.22
2023-03-07T14:29:26.038Z,98462.19
2023-03-07T14:34:33.645Z,98467.53
2023-03-07T14:39:53.525Z,98463.38
2023-03-07T14:45:16.160Z,98463.38
2023-03-07T14:50:23.315Z,98482.03
2023-03-07T14:55:35.860Z,98482.31
2023-03-07T15:00:37.258Z,98479.41
2023-03-07T15:05:48.205Z,98476.59
2023-03-07T15:10:57.667Z,98474.38
2023-03-07T15:16:03.680Z,98477.03
2023-03-07T15:21:07.445Z,98476.41
2023-03-07T15:26:20.965Z,98472.50
2023-03-07T15:31:23.065Z,98469.22
2023-03-07T15:36:27.004Z,98461.03
2023-03-07T15:41:37.153Z,98464.25
2023-03-07T15:46:48.623Z,98468.25
2023-03-07T15:51:54.275Z,98461.22
2023-03-07T15:56:59.369Z,98458.28
2023-03-07T16:02:34.896Z,98469.31
2023-03-07T16:07:36.322Z,98474.28
2023-03-07T16:12:45.982Z,98470.78
2023-03-07T16:17:54.932Z,98473.00
2023-03-07T16:22:56.483Z,98482.94
2023-03-07T16:27:59.155Z,98475.75
2023-03-07T16:33:00.520Z,98473.47
2023-03-07T16:38:01.859Z,98483.34
2023-03-07T16:43:03.326Z,98481.34
2023-03-07T16:48:04.860Z,98480.75
2023-03-07T16:53:06.331Z,98473.31
2023-03-07T16:58:19.680Z,98473.94
2023-03-07T17:03:21.675Z,98472.09
2023-03-07T17:08:23.076Z,98478.88
2023-03-07T17:13:24.476Z,98479.91
2023-03-07T17:18:26.636Z,98493.56
2023-03-07T17:23:28.057Z,98497.66
2023-03-07T17:28:29.573Z,98496.22
2023-03-07T17:33:31.000Z,98486.94
2023-03-07T17:38:32.438Z,98494.41
2023-03-07T17:43:34.029Z,98502.06
2023-03-07T17:48:35.698Z,98502.47
2023-03-07T17:53:38.329Z,98508.88
2023-03-07T17:58:39.715Z,98515.28
2023-03-07T18:03:48.751Z,98517.75
2023-03-07T18:08:50.673Z,98523.34
2023-03-07T18:13:52.082Z,98520.84
2023-03-07T18:18:59.448Z,98521.28
2023-03-07T18:24:03.067Z,98520.69
2023-03-07T18:29:04.561Z,98530.34
2023-03-07T18:34:06.116Z,98525.81
2023-03-07T18:39:11.086Z,98531.59
2023-03-07T18:44:12.484Z,98538.38
2023-03-07T18:49:16.157Z,98533.88
2023-03-07T18:54:17.895Z,98540.84
2023-03-07T18:59:19.486Z,98539.81
2023-03-07T19:04:20.867Z,98551.53
2023-03-07T19:09:23.721Z,98543.34
2023-03-07T19:14:26.438Z,98554.66
2023-03-07T19:19:27.950Z,98560.19
2023-03-07T19:24:29.444Z,98571.06
2023-03-07T19:29:31.032Z,98578.28
2023-03-07T19:34:32.439Z,98586.50
2023-03-07T19:39:34.239Z,98600.28
2023-03-07T19:44:35.808Z,98614.66
2023-03-07T19:49:37.718Z,98611.34
2023-03-07T19:54:40.650Z,98637.28
2023-03-07T19:59:42.105Z,98648.88
2023-03-07T20:04:43.545Z,98668.66
2023-03-07T20:09:45.011Z,98672.59
2023-03-07T20:14:46.632Z,98673.31
2023-03-07T20:19:50.520Z,98693.72
2023-03-07T20:24:52.358Z,98689.09
2023-03-07T20:29:53.965Z,98689.56
2023-03-07T20:34:57.637Z,98685.84
2023-03-07T20:40:02.617Z,98691.16
2023-03-07T20:45:05.659Z,98707.66
2023-03-07T20:50:07.551Z,98709.06
2023-03-07T20:55:09.210Z,98706.56
2023-03-07T21:00:11.414Z,98714.97
2023-03-07T21:05:12.837Z,98717.88
2023-03-07T21:10:14.567Z,98729.34
2023-03-07T21:15:16.058Z,98736.53
2023-03-07T21:20:17.544Z,98760.47
2023-03-07T21:25:18.951Z,98755.88
2023-03-07T21:30:20.453Z,98756.41
2023-03-07T21:35:21.848Z,98755.84
2023-03-07T21:40:23.265Z,98762.28
2023-03-07T21:45:25.749Z,98752.19
2023-03-07T21:50:27.683Z,98768.44
2023-03-07T21:55:29.089Z,98774.31
2023-03-07T22:00:30.862Z,98780.13
2023-03-07T22:05:32.278Z,98785.81
2023-03-07T22:10:33.769Z,98785.56
2023-03-07T22:15:35.211Z,98791.84
2023-03-07T22:20:38.244Z,98790.16
2023-03-07T22:25:39.691Z,98795.31
2023-03-07T22:30:41.161Z,98798.72
2023-03-07T22:35:42.660Z,98812.31
2023-03-07T22:40:44.011Z,98807.72
2023-03-07T22:45:50.643Z,98811.84
2023-03-07T22:50:52.223Z,98821.88
2023-03-07T22:55:53.723Z,98818.66
2023-03-07T23:00:55.122Z,98813.78
2023-03-07T23:05:59.635Z,98823.34
2023-03-07T23:11:03.619Z,98823.78
2023-03-07T23:16:16.479Z,98817.47
2023-03-07T23:21:23.672Z,98811.41
2023-03-07T23:26:28.031Z,98814.09
2023-03-07T23:31:32.458Z,98813.97
2023-03-07T23:36:34.519Z,98820.59
2023-03-07T23:41:36.264Z,98817.41
2023-03-07T23:46:37.968Z,98814.75
2023-03-07T23:51:39.465Z,98817.25
2023-03-07T23:56:40.826Z,98816.94
